Time;durP1;ratioP1;P1;durP2;ratioP2;P2;SDS_P1;SDS_P2;PMS_P1;PMS_P2;Temp;Humidity;BMP_temperature;BMP_pressure;BME280_temperature;BME280_humidity;BME280_pressure;Samples;Min_cycle;Max_cycle;Signal;HPM_P1;HPM_P2
2021/12/14 00:01:57;;;;;;;73.97;15.40;;;;;;;;;;6213131;23;20243;-88
2021/12/14 00:05:04;;;;;;;72.50;16.67;;;;;;;;;;6213438;23;20171;-85
2021/12/14 00:08:13;;;;;;;77.20;16.40;;;;;;;;;;6211848;23;20815;-89
2021/12/14 00:11:49;;;;;;;66.20;16.80;;;;;;;;;;6211935;23;20194;-89
2021/12/14 00:15:03;;;;;;;68.07;16.60;;;;;;;;;;6209821;22;20951;-87
2021/12/14 00:18:13;;;;;;;73.80;16.33;;;;;;;;;;6214062;23;20521;-89
2021/12/14 00:30:10;;;;;;;73.63;15.73;;;;;;;;;;6208356;22;20227;-86
2021/12/14 00:33:17;;;;;;;63.20;14.07;;;;;;;;;;6214130;23;20155;-89
2021/12/14 00:36:22;;;;;;;62.30;14.87;;;;;;;;;;6215058;23;20195;-88
2021/12/14 00:39:27;;;;;;;51.13;14.43;;;;;;;;;;6213956;23;20202;-89
2021/12/14 00:42:33;;;;;;;46.60;12.90;;;;;;;;;;6215664;23;20174;-89
2021/12/14 00:45:42;;;;;;;52.70;13.40;;;;;;;;;;6214393;23;20274;-88
2021/12/14 00:48:49;;;;;;;54.73;14.20;;;;;;;;;;6215343;23;20171;-90
2021/12/14 00:51:55;;;;;;;56.40;14.17;;;;;;;;;;6213876;23;20170;-88
2021/12/14 00:55:00;;;;;;;53.73;14.33;;;;;;;;;;6212648;23;20171;-88
2021/12/14 00:58:06;;;;;;;53.00;13.90;;;;;;;;;;6212862;23;20585;-90
2021/12/14 01:01:15;;;;;;;51.97;14.93;;;;;;;;;;6210764;23;20214;-90
2021/12/14 01:04:22;;;;;;;49.67;13.80;;;;;;;;;;6212251;23;20163;-89
2021/12/14 01:07:33;;;;;;;47.27;14.60;;;;;;;;;;6212347;23;20159;-88
2021/12/14 01:10:40;;;;;;;56.13;14.33;;;;;;;;;;6213432;23;20171;-90
2021/12/14 01:13:54;;;;;;;45.20;13.97;;;;;;;;;;6211782;23;20222;-89
2021/12/14 01:17:11;;;;;;;56.20;13.67;;;;;;;;;;6211932;23;20179;-87
2021/12/14 01:20:17;;;;;;;55.83;14.33;;;;;;;;;;6212501;23;20171;-87
2021/12/14 01:23:30;;;;;;;44.53;13.03;;;;;;;;;;6214529;23;20183;-88
2021/12/14 01:26:36;;;;;;;40.90;13.87;;;;;;;;;;6214164;23;20179;-89
2021/12/14 01:29:43;;;;;;;39.23;12.27;;;;;;;;;;6210519;23;20248;-89
2021/12/14 01:32:52;;;;;;;43.97;13.50;;;;;;;;;;6211313;23;20170;-89
2021/12/14 01:35:59;;;;;;;49.80;14.13;;;;;;;;;;6211265;23;20207;-89
2021/12/14 01:39:23;;;;;;;47.00;13.90;;;;;;;;;;6212225;23;20246;-89
2021/12/14 01:42:29;;;;;;;53.27;15.40;;;;;;;;;;6212885;23;20216;-86
2021/12/14 01:45:35;;;;;;;54.93;14.57;;;;;;;;;;6210941;23;20171;-88
2021/12/14 01:48:42;;;;;;;53.40;15.23;;;;;;;;;;6211463;23;20232;-85
2021/12/14 01:52:06;;;;;;;49.77;14.27;;;;;;;;;;6210175;23;20164;-91
2021/12/14 01:55:13;;;;;;;56.50;14.53;;;;;;;;;;6211444;23;20245;-90
2021/12/14 01:58:19;;;;;;;58.43;14.23;;;;;;;;;;6212135;23;20272;-89
2021/12/14 02:01:28;;;;;;;48.83;13.77;;;;;;;;;;6211705;23;20186;-90
2021/12/14 02:04:36;;;;;;;51.77;13.60;;;;;;;;;;6214886;23;20246;-88
2021/12/14 02:07:42;;;;;;;51.10;13.87;;;;;;;;;;6212399;23;20171;-90
2021/12/14 02:10:47;;;;;;;55.40;14.40;;;;;;;;;;6212076;23;20637;-91
2021/12/14 02:13:54;;;;;;;71.60;13.90;;;;;;;;;;6209671;23;20214;-89
2021/12/14 02:17:03;;;;;;;62.80;14.63;;;;;;;;;;6210241;23;20182;-90
2021/12/14 02:20:11;;;;;;;55.10;14.30;;;;;;;;;;6210970;23;20274;-90
2021/12/14 02:23:18;;;;;;;64.93;15.40;;;;;;;;;;6211207;23;20605;-90
2021/12/14 02:26:26;;;;;;;72.73;14.63;;;;;;;;;;6210238;23;20191;-89
2021/12/14 02:29:32;;;;;;;70.87;15.80;;;;;;;;;;6212276;23;20738;-88
2021/12/14 02:32:38;;;;;;;67.73;14.73;;;;;;;;;;6210718;23;20502;-87
2021/12/14 02:35:43;;;;;;;68.73;14.50;;;;;;;;;;6211062;23;20155;-87
2021/12/14 02:38:53;;;;;;;86.37;14.37;;;;;;;;;;6211075;23;20194;-88
2021/12/14 02:41:59;;;;;;;57.57;13.67;;;;;;;;;;6211457;23;20240;-88
2021/12/14 02:45:06;;;;;;;59.37;15.23;;;;;;;;;;6210636;23;20163;-88
2021/12/14 02:48:11;;;;;;;52.57;13.13;;;;;;;;;;6210376;23;20167;-89
2021/12/14 02:51:18;;;;;;;51.80;13.17;;;;;;;;;;6211504;23;20167;-88
2021/12/14 02:54:25;;;;;;;48.03;13.93;;;;;;;;;;6213950;23;20171;-88
2021/12/14 02:57:34;;;;;;;48.07;12.83;;;;;;;;;;6213905;23;20159;-91
2021/12/14 03:00:41;;;;;;;40.40;12.27;;;;;;;;;;6214230;23;20666;-88
2021/12/14 03:03:46;;;;;;;39.77;13.13;;;;;;;;;;6213198;23;20298;-91
2021/12/14 03:06:53;;;;;;;49.17;13.10;;;;;;;;;;6211098;23;20199;-91
2021/12/14 03:10:17;;;;;;;37.63;12.17;;;;;;;;;;6212504;23;20215;-90
2021/12/14 03:13:24;;;;;;;45.20;13.17;;;;;;;;;;6212370;23;20179;-90
2021/12/14 03:16:30;;;;;;;45.13;12.50;;;;;;;;;;6212863;23;20217;-89
2021/12/14 03:19:35;;;;;;;37.37;11.77;;;;;;;;;;6213735;23;20654;-89
2021/12/14 03:22:43;;;;;;;40.60;12.03;;;;;;;;;;6213103;23;20183;-88
2021/12/14 03:25:50;;;;;;;49.47;13.90;;;;;;;;;;6212031;23;20182;-87
2021/12/14 03:28:57;;;;;;;48.97;13.47;;;;;;;;;;6212292;23;20287;-90
2021/12/14 03:32:02;;;;;;;42.60;12.17;;;;;;;;;;6213527;23;20232;-88
2021/12/14 03:35:11;;;;;;;45.03;14.53;;;;;;;;;;6212387;23;20187;-88
2021/12/14 03:38:19;;;;;;;45.53;13.43;;;;;;;;;;6213363;23;20166;-86
2021/12/14 03:41:27;;;;;;;45.30;13.57;;;;;;;;;;6213349;23;20236;-86
2021/12/14 03:44:34;;;;;;;45.43;13.33;;;;;;;;;;6212615;23;20174;-87
2021/12/14 03:47:43;;;;;;;45.80;14.47;;;;;;;;;;6212061;23;20490;-87
2021/12/14 03:50:49;;;;;;;52.43;13.03;;;;;;;;;;6213228;23;20204;-87
2021/12/14 03:53:55;;;;;;;50.83;14.87;;;;;;;;;;6212257;23;20219;-88
2021/12/14 03:57:03;;;;;;;46.53;12.77;;;;;;;;;;6212544;23;20171;-88
2021/12/14 04:00:11;;;;;;;50.37;13.07;;;;;;;;;;6210133;23;20195;-90
2021/12/14 04:03:26;;;;;;;49.47;14.30;;;;;;;;;;6229515;23;20167;-87
2021/12/14 04:07:03;;;;;;;52.23;12.57;;;;;;;;;;6229798;23;20186;-89
2021/12/14 04:10:11;;;;;;;43.07;13.40;;;;;;;;;;6212703;23;20171;-88
2021/12/14 04:13:18;;;;;;;45.00;13.30;;;;;;;;;;6212076;23;20167;-86
2021/12/14 04:16:24;;;;;;;40.90;13.33;;;;;;;;;;6214708;23;20158;-88
2021/12/14 04:19:34;;;;;;;42.57;12.23;;;;;;;;;;6212972;23;20203;-88
2021/12/14 04:22:47;;;;;;;41.50;12.23;;;;;;;;;;6212233;23;20176;-89
2021/12/14 04:25:54;;;;;;;46.03;13.20;;;;;;;;;;6213888;23;20199;-91
2021/12/14 04:29:02;;;;;;;44.93;13.33;;;;;;;;;;6213063;23;20269;-90
2021/12/14 04:32:09;;;;;;;43.93;13.87;;;;;;;;;;6211353;23;20175;-87
2021/12/14 04:35:15;;;;;;;45.77;12.63;;;;;;;;;;6213769;23;20168;-87
2021/12/14 04:38:26;;;;;;;41.93;13.23;;;;;;;;;;6211927;23;20167;-88
2021/12/14 04:51:58;;;;;;;43.23;13.97;;;;;;;;;;6212442;23;20187;-89
2021/12/14 04:55:08;;;;;;;47.67;14.43;;;;;;;;;;6213054;23;20199;-88
2021/12/14 04:58:15;;;;;;;48.37;13.40;;;;;;;;;;6217010;23;20163;-88
2021/12/14 05:01:35;;;;;;;52.80;13.53;;;;;;;;;;6214064;23;20179;-88
2021/12/14 05:04:41;;;;;;;51.17;13.80;;;;;;;;;;6214875;23;20171;-88
2021/12/14 05:09:19;;;;;;;48.83;13.37;;;;;;;;;;6215120;23;20191;-87
2021/12/14 05:11:17;;;;;;;44.70;12.70;;;;;;;;;;6233425;23;20191;-90
2021/12/14 05:14:24;;;;;;;45.80;12.77;;;;;;;;;;6212478;23;20171;-89
2021/12/14 05:17:32;;;;;;;43.00;12.03;;;;;;;;;;6210132;23;20155;-89
2021/12/14 05:20:37;;;;;;;43.00;12.37;;;;;;;;;;6215564;23;20202;-89
2021/12/14 05:23:43;;;;;;;40.60;12.90;;;;;;;;;;6216507;23;20160;-89
2021/12/14 05:26:56;;;;;;;37.60;11.63;;;;;;;;;;6216585;23;20175;-89
2021/12/14 05:30:08;;;;;;;44.17;12.77;;;;;;;;;;6216378;23;20206;-90
2021/12/14 05:33:25;;;;;;;47.40;12.73;;;;;;;;;;6215228;23;20208;-88
2021/12/14 05:36:32;;;;;;;40.57;12.57;;;;;;;;;;6214377;23;20191;-92
2021/12/14 05:43:07;;;;;;;39.00;11.77;;;;;;;;;;6215082;23;20236;-86
2021/12/14 05:46:36;;;;;;;36.73;11.60;;;;;;;;;;6213386;23;20206;-89
2021/12/14 05:50:00;;;;;;;43.03;11.83;;;;;;;;;;6214294;23;20171;-89
2021/12/14 05:53:07;;;;;;;37.90;11.77;;;;;;;;;;6210678;23;20198;-87
2021/12/14 05:56:14;;;;;;;39.40;10.90;;;;;;;;;;6211118;23;20155;-88
2021/12/14 05:59:21;;;;;;;36.10;10.90;;;;;;;;;;6215153;23;20246;-87
2021/12/14 06:02:26;;;;;;;34.40;10.80;;;;;;;;;;6212262;23;20498;-88
2021/12/14 06:05:34;;;;;;;41.10;12.13;;;;;;;;;;6212695;23;20213;-87
2021/12/14 06:08:40;;;;;;;44.50;12.70;;;;;;;;;;6211365;23;20550;-89
2021/12/14 06:12:00;;;;;;;39.97;11.67;;;;;;;;;;6210906;23;20167;-89
2021/12/14 06:15:08;;;;;;;41.73;13.53;;;;;;;;;;6212874;23;20253;-90
2021/12/14 06:18:17;;;;;;;33.33;11.60;;;;;;;;;;6214003;23;20179;-87
2021/12/14 06:22:08;;;;;;;40.37;12.20;;;;;;;;;;6232249;23;20179;-88
2021/12/14 06:25:16;;;;;;;35.97;11.33;;;;;;;;;;6213783;23;20171;-88
2021/12/14 06:28:25;;;;;;;39.07;11.60;;;;;;;;;;6215568;23;20252;-89
2021/12/14 06:31:31;;;;;;;41.67;12.20;;;;;;;;;;6218179;23;20167;-89
2021/12/14 06:34:42;;;;;;;31.83;10.37;;;;;;;;;;6216563;23;20172;-90
2021/12/14 06:38:23;;;;;;;31.03;10.07;;;;;;;;;;6216513;23;20175;-88
2021/12/14 06:41:33;;;;;;;36.47;10.87;;;;;;;;;;6216132;23;20167;-89
2021/12/14 06:44:40;;;;;;;25.03;9.77;;;;;;;;;;6215359;23;20167;-89
2021/12/14 06:47:46;;;;;;;27.27;10.03;;;;;;;;;;6214208;23;20253;-87
2021/12/14 06:50:53;;;;;;;34.17;10.73;;;;;;;;;;6218948;23;20182;-90
2021/12/14 06:54:15;;;;;;;31.27;10.00;;;;;;;;;;6213410;23;20228;-89
2021/12/14 06:57:21;;;;;;;27.00;9.57;;;;;;;;;;6232767;23;20171;-87
2021/12/14 07:00:41;;;;;;;24.83;9.10;;;;;;;;;;6212528;23;20195;-89
2021/12/14 07:03:48;;;;;;;28.80;10.37;;;;;;;;;;6214324;23;20174;-86
2021/12/14 07:06:56;;;;;;;34.07;9.47;;;;;;;;;;6211943;23;20167;-88
2021/12/14 07:10:03;;;;;;;26.67;9.17;;;;;;;;;;6210662;23;20179;-88
2021/12/14 07:13:13;;;;;;;35.17;11.07;;;;;;;;;;6212061;23;20216;-86
2021/12/14 07:16:21;;;;;;;21.13;7.93;;;;;;;;;;6213870;23;20183;-88
2021/12/14 07:19:40;;;;;;;25.07;8.50;;;;;;;;;;6212363;23;20190;-90
2021/12/14 07:22:47;;;;;;;26.07;9.37;;;;;;;;;;6211621;23;20498;-88
2021/12/14 07:25:56;;;;;;;26.23;10.00;;;;;;;;;;6210712;23;20170;-87
2021/12/14 07:29:02;;;;;;;27.80;9.77;;;;;;;;;;6212099;23;20199;-89
2021/12/14 07:32:08;;;;;;;24.63;9.60;;;;;;;;;;6212394;23;20171;-89
2021/12/14 07:35:18;;;;;;;22.10;9.33;;;;;;;;;;6213134;23;20274;-86
2021/12/14 07:38:27;;;;;;;27.27;10.20;;;;;;;;;;6211521;23;20170;-90
2021/12/14 07:41:35;;;;;;;24.80;9.20;;;;;;;;;;6211740;23;20235;-87
2021/12/14 07:44:44;;;;;;;30.37;12.03;;;;;;;;;;6230842;23;20222;-89
2021/12/14 07:47:51;;;;;;;29.27;10.33;;;;;;;;;;6210056;23;20170;-86
2021/12/14 07:50:57;;;;;;;28.13;9.40;;;;;;;;;;6214096;23;20167;-87
2021/12/14 07:54:05;;;;;;;32.37;12.37;;;;;;;;;;6212332;23;20186;-87
2021/12/14 07:57:13;;;;;;;35.77;13.80;;;;;;;;;;6211014;23;20170;-90
2021/12/14 08:00:19;;;;;;;41.23;14.17;;;;;;;;;;6212978;23;20291;-89
2021/12/14 08:03:29;;;;;;;24.57;9.87;;;;;;;;;;6213036;23;20179;-90
2021/12/14 08:06:52;;;;;;;29.13;9.83;;;;;;;;;;6232147;23;20243;-89
2021/12/14 08:10:06;;;;;;;26.03;9.53;;;;;;;;;;6214380;23;20159;-87
2021/12/14 08:13:14;;;;;;;27.00;9.47;;;;;;;;;;6214295;23;20220;-88
2021/12/14 08:16:29;;;;;;;33.17;9.80;;;;;;;;;;6217070;23;20198;-87
2021/12/14 08:19:38;;;;;;;33.00;10.43;;;;;;;;;;6213600;23;20166;-89
2021/12/14 08:22:51;;;;;;;29.50;9.67;;;;;;;;;;6219987;23;20187;-84
2021/12/14 08:25:58;;;;;;;25.50;8.97;;;;;;;;;;6215873;23;20171;-90
2021/12/14 08:29:07;;;;;;;26.90;8.80;;;;;;;;;;6214033;23;20212;-87
2021/12/14 08:32:14;;;;;;;29.40;9.67;;;;;;;;;;6211576;23;20187;-89
2021/12/14 08:35:20;;;;;;;25.67;9.00;;;;;;;;;;6217560;23;20163;-89
2021/12/14 08:38:27;;;;;;;28.13;9.83;;;;;;;;;;6214271;23;20171;-86
2021/12/14 08:41:32;;;;;;;27.10;10.30;;;;;;;;;;6214328;23;20207;-88
2021/12/14 08:44:40;;;;;;;27.80;10.30;;;;;;;;;;6212575;23;20175;-89
2021/12/14 08:47:49;;;;;;;30.07;9.47;;;;;;;;;;6212958;23;20159;-87
2021/12/14 08:50:57;;;;;;;29.80;9.27;;;;;;;;;;6212954;23;20187;-88
2021/12/14 08:54:03;;;;;;;29.63;9.73;;;;;;;;;;6214898;23;20189;-87
2021/12/14 08:57:10;;;;;;;25.30;9.00;;;;;;;;;;6214652;23;20174;-88
2021/12/14 09:00:18;;;;;;;33.33;10.50;;;;;;;;;;6212274;23;20219;-88
2021/12/14 09:03:31;;;;;;;27.63;9.50;;;;;;;;;;6211593;23;20163;-88
2021/12/14 09:06:38;;;;;;;31.13;10.60;;;;;;;;;;6216015;23;20163;-89
2021/12/14 09:09:44;;;;;;;32.40;10.53;;;;;;;;;;6215117;23;20174;-87
2021/12/14 09:12:51;;;;;;;34.17;10.87;;;;;;;;;;6215353;23;20626;-88
2021/12/14 09:15:59;;;;;;;36.47;10.63;;;;;;;;;;6215204;23;20171;-87
2021/12/14 09:19:06;;;;;;;40.80;10.60;;;;;;;;;;6217554;23;20175;-87
2021/12/14 09:22:15;;;;;;;40.63;11.07;;;;;;;;;;6219385;23;20191;-87
2021/12/14 23:42:55;;;;;;;63.47;16.93;;;;;;;;;;6234443;22;20207;-90
2021/12/14 23:46:12;;;;;;;86.57;16.40;;;;;;;;;;6217775;23;20215;-89
